Time;durP1;ratioP1;P1;durP2;ratioP2;P2;SDS_P1;SDS_P2;PMS_P1;PMS_P2;Temp;Humidity;BMP_temperature;BMP_pressure;BME280_temperature;BME280_humidity;BME280_pressure;Samples;Min_cycle;Max_cycle;Signal;HPM_P1;HPM_P2
2023/05/16 00:00:44;;;;;;;35.35;22.05;;;14.90;99.90;;;;;;5017866;28;20506;-60
2023/05/16 00:03:11;;;;;;;45.22;26.70;;;14.90;99.90;;;;;;5017575;28;20034;-60
2023/05/16 00:05:37;;;;;;;47.78;28.90;;;14.90;99.90;;;;;;5017978;28;20468;-60
2023/05/16 00:08:04;;;;;;;46.58;26.83;;;14.80;99.90;;;;;;5017538;28;20042;-60
2023/05/16 00:10:30;;;;;;;52.63;27.88;;;14.90;99.90;;;;;;5017933;28;20026;-59
2023/05/16 00:12:56;;;;;;;41.08;24.45;;;14.90;99.90;;;;;;5017809;28;20040;-60
2023/05/16 00:15:23;;;;;;;50.35;27.67;;;14.90;99.90;;;;;;5017606;28;20472;-60
2023/05/16 00:17:50;;;;;;;43.35;25.67;;;14.80;99.90;;;;;;5017599;28;20025;-60
2023/05/16 00:20:21;;;;;;;39.40;20.60;;;14.90;99.90;;;;;;5017767;28;20030;-60
2023/05/16 00:22:47;;;;;;;37.15;19.52;;;14.90;99.90;;;;;;5017304;28;20097;-59
2023/05/16 00:25:13;;;;;;;31.88;17.30;;;14.90;99.90;;;;;;5017598;28;20026;-60
2023/05/16 00:27:39;;;;;;;27.02;13.98;;;14.90;99.90;;;;;;5017461;28;20031;-60
2023/05/16 00:30:06;;;;;;;23.23;10.20;;;15.00;99.90;;;;;;5017374;28;20373;-60
2023/05/16 00:32:32;;;;;;;14.98;7.22;;;15.00;99.90;;;;;;5017682;28;20037;-60
2023/05/16 00:35:00;;;;;;;13.75;6.85;;;15.10;99.90;;;;;;4983361;28;20037;-60
2023/05/16 00:37:26;;;;;;;11.50;5.82;;;15.00;99.90;;;;;;4999544;28;20029;-59
2023/05/16 00:39:53;;;;;;;11.48;5.82;;;14.90;99.90;;;;;;4999723;28;20033;-60
2023/05/16 00:42:20;;;;;;;13.27;5.40;;;15.00;99.90;;;;;;5017171;28;20423;-60
2023/05/16 00:44:46;;;;;;;10.30;4.47;;;15.00;99.90;;;;;;4999391;28;20026;-60
2023/05/16 00:47:14;;;;;;;10.38;4.47;;;15.00;99.90;;;;;;5017071;28;20033;-60
2023/05/16 00:49:41;;;;;;;13.80;5.03;;;15.00;99.90;;;;;;5017062;28;20458;-60
2023/05/16 00:52:07;;;;;;;8.02;3.83;;;15.00;99.90;;;;;;5016945;28;20037;-60
2023/05/16 00:54:33;;;;;;;14.40;4.53;;;15.00;99.90;;;;;;4999458;28;20025;-60
2023/05/16 00:56:59;;;;;;;6.97;3.78;;;14.90;99.90;;;;;;5016029;28;20040;-60
2023/05/16 00:59:26;;;;;;;10.43;4.32;;;14.90;99.90;;;;;;5016595;28;20395;-60
2023/05/16 01:01:51;;;;;;;10.32;3.60;;;15.00;99.90;;;;;;5016843;28;20166;-60
2023/05/16 01:04:19;;;;;;;8.57;3.67;;;14.90;99.90;;;;;;5016682;28;20029;-60
2023/05/16 01:06:45;;;;;;;13.05;3.92;;;14.90;99.90;;;;;;4999020;28;20411;-60
2023/05/16 01:09:12;;;;;;;8.30;3.80;;;14.90;99.90;;;;;;5016665;28;20026;-60
2023/05/16 01:11:48;;;;;;;9.23;3.75;;;14.90;99.90;;;;;;5016567;28;20029;-60
2023/05/16 01:14:42;;;;;;;11.73;4.32;;;14.90;99.90;;;;;;4998808;28;20112;-60
2023/05/16 01:17:22;;;;;;;12.57;4.65;;;14.90;99.90;;;;;;5016561;28;20034;-59
2023/05/16 01:20:07;;;;;;;;;;;14.80;99.90;;;;;;5017095;28;20029;-59
2023/05/16 01:22:46;;;;;;;10.32;4.32;;;14.90;99.90;;;;;;5016410;28;19917;-59
2023/05/16 01:25:38;;;;;;;12.27;4.65;;;14.80;99.90;;;;;;5016391;28;20396;-59
2023/05/16 01:28:05;;;;;;;10.40;4.93;;;14.80;99.90;;;;;;4979257;28;20069;-60
2023/05/16 01:30:37;;;;;;;9.13;5.10;;;14.80;99.90;;;;;;4996826;28;20030;-60
2023/05/16 01:33:03;;;;;;;11.65;5.38;;;14.80;99.90;;;;;;4996655;28;20348;-60
2023/05/16 01:35:30;;;;;;;13.88;6.25;;;14.80;99.90;;;;;;4996480;28;20484;-59
2023/05/16 01:38:28;;;;;;;21.50;9.10;;;14.90;99.90;;;;;;4979156;28;20125;-60
2023/05/16 01:41:00;;;;;;;15.30;8.50;;;14.90;99.90;;;;;;4996351;28;20356;-60
2023/05/16 01:43:44;;;;;;;16.20;7.75;;;14.90;99.90;;;;;;4979018;28;20506;-60
2023/05/16 01:46:13;;;;;;;15.07;6.70;;;14.90;99.90;;;;;;5015435;28;20026;-60
2023/05/16 01:48:50;;;;;;;15.05;8.27;;;14.80;99.90;;;;;;5015849;28;20422;-60
2023/05/16 01:51:20;;;;;;;17.73;9.70;;;14.90;99.90;;;;;;5015902;28;20076;-60
2023/05/16 01:53:47;;;;;;;14.38;9.65;;;15.00;99.90;;;;;;5015924;28;20022;-60
2023/05/16 01:56:15;;;;;;;17.50;11.38;;;14.90;99.90;;;;;;5015825;28;20483;-59
2023/05/16 01:58:43;;;;;;;16.73;11.55;;;14.80;99.90;;;;;;4998226;28;20033;-60
2023/05/16 02:01:09;;;;;;;14.43;9.68;;;14.80;99.90;;;;;;5015957;28;20026;-61
2023/05/16 02:03:37;;;;;;;18.77;12.05;;;14.80;99.90;;;;;;5015603;28;20030;-60
2023/05/16 02:06:03;;;;;;;22.83;12.95;;;14.90;99.90;;;;;;5015589;28;20022;-60
2023/05/16 02:08:30;;;;;;;24.77;15.07;;;14.80;99.90;;;;;;4997894;28;20041;-60
2023/05/16 02:10:56;;;;;;;26.05;16.02;;;14.80;99.90;;;;;;5015429;28;20491;-60
2023/05/16 02:13:22;;;;;;;24.88;15.70;;;14.80;99.90;;;;;;5015716;28;20100;-60
2023/05/16 02:15:48;;;;;;;27.83;16.60;;;14.90;99.90;;;;;;4997819;28;20486;-60
2023/05/16 02:18:15;;;;;;;21.13;13.32;;;14.90;99.90;;;;;;5015374;28;20034;-60
2023/05/16 02:20:42;;;;;;;22.42;12.93;;;14.90;99.90;;;;;;5015623;28;20057;-60
2023/05/16 02:23:08;;;;;;;21.60;13.43;;;14.90;99.90;;;;;;5015349;28;20510;-60
2023/05/16 02:25:33;;;;;;;22.05;13.35;;;14.90;99.90;;;;;;5015151;28;20053;-60
2023/05/16 02:27:59;;;;;;;19.38;12.48;;;14.80;99.90;;;;;;5015370;28;20057;-59
2023/05/16 02:30:25;;;;;;;21.92;13.70;;;14.70;99.90;;;;;;5015304;28;20049;-59
2023/05/16 02:32:52;;;;;;;27.30;14.32;;;14.70;99.90;;;;;;5015128;28;20026;-59
2023/05/16 02:35:18;;;;;;;20.42;13.73;;;14.60;99.90;;;;;;5015175;28;20487;-59
2023/05/16 02:37:45;;;;;;;22.90;15.32;;;14.60;99.90;;;;;;5015159;28;20101;-59
2023/05/16 02:40:12;;;;;;;24.27;14.88;;;14.60;99.90;;;;;;4997348;28;20083;-59
2023/05/16 02:42:38;;;;;;;28.50;15.30;;;14.60;99.90;;;;;;4997368;28;20034;-60
2023/05/16 02:45:04;;;;;;;22.48;15.32;;;14.60;99.90;;;;;;4997303;28;20368;-60
2023/05/16 02:47:30;;;;;;;25.05;15.38;;;14.60;99.90;;;;;;5015062;28;20378;-60
2023/05/16 02:49:56;;;;;;;26.63;15.52;;;14.60;99.90;;;;;;5015126;28;20026;-60
2023/05/16 02:52:22;;;;;;;26.17;14.65;;;14.60;99.90;;;;;;5014896;28;20037;-60
2023/05/16 02:54:48;;;;;;;26.17;16.58;;;14.60;99.90;;;;;;4997278;28;20029;-60
2023/05/16 02:57:14;;;;;;;31.38;18.35;;;14.70;99.90;;;;;;4997296;28;20056;-60
2023/05/16 02:59:40;;;;;;;33.90;17.80;;;14.70;99.90;;;;;;4997262;28;20041;-60
2023/05/16 03:02:07;;;;;;;25.02;17.23;;;14.60;99.90;;;;;;4997006;28;20101;-59
2023/05/16 03:04:32;;;;;;;30.10;17.40;;;14.60;99.90;;;;;;5014844;28;20105;-60
2023/05/16 03:06:59;;;;;;;24.63;17.15;;;14.70;99.90;;;;;;5014614;28;20062;-60
2023/05/16 03:09:26;;;;;;;30.10;19.58;;;14.70;99.90;;;;;;5014571;28;20105;-60
2023/05/16 03:11:52;;;;;;;28.02;17.77;;;14.70;99.90;;;;;;5014701;28;20060;-60
2023/05/16 03:14:19;;;;;;;25.02;16.55;;;14.70;99.90;;;;;;4996962;28;20022;-60
2023/05/16 03:16:45;;;;;;;24.48;16.35;;;14.80;99.90;;;;;;4997013;28;20049;-59
2023/05/16 03:19:12;;;;;;;27.75;17.05;;;14.80;99.90;;;;;;5014754;28;20479;-60
2023/05/16 03:21:38;;;;;;;26.00;16.55;;;14.80;99.90;;;;;;5016874;28;20493;-60
2023/05/16 03:24:05;;;;;;;29.67;17.98;;;14.80;99.90;;;;;;5001114;28;20619;-60
2023/05/16 03:26:31;;;;;;;28.52;17.77;;;14.80;99.90;;;;;;5018639;28;20091;-60
2023/05/16 03:28:58;;;;;;;32.63;18.58;;;14.80;99.90;;;;;;5018534;28;20230;-60
2023/05/16 03:31:24;;;;;;;27.52;18.48;;;14.70;99.90;;;;;;5018518;28;20446;-60
2023/05/16 03:33:50;;;;;;;26.55;16.55;;;14.70;99.90;;;;;;5018514;28;20022;-60
2023/05/16 03:36:16;;;;;;;27.88;16.67;;;14.70;99.90;;;;;;5018451;28;20030;-60
2023/05/16 03:38:42;;;;;;;26.10;16.65;;;14.80;99.90;;;;;;5000880;28;20088;-60
2023/05/16 03:41:08;;;;;;;23.77;15.88;;;14.90;99.90;;;;;;5018331;28;20034;-59
2023/05/16 03:43:34;;;;;;;28.05;16.40;;;14.90;99.90;;;;;;5018300;28;20044;-59
2023/05/16 03:46:03;;;;;;;27.88;17.48;;;14.90;99.90;;;;;;5018258;28;20029;-60
2023/05/16 03:48:28;;;;;;;30.27;16.77;;;14.80;99.90;;;;;;5018349;28;20021;-59
2023/05/16 03:50:54;;;;;;;24.15;16.80;;;14.80;99.90;;;;;;5017996;28;20057;-60
2023/05/16 03:53:20;;;;;;;26.67;16.88;;;14.80;99.90;;;;;;5018224;28;20029;-60
2023/05/16 03:55:46;;;;;;;29.75;17.25;;;14.70;99.90;;;;;;5018227;28;20033;-59
2023/05/16 03:58:12;;;;;;;25.95;17.08;;;14.80;99.90;;;;;;5018030;28;20030;-59
2023/05/16 04:00:38;;;;;;;24.15;16.00;;;14.80;99.90;;;;;;5000460;28;20120;-59
2023/05/16 04:03:04;;;;;;;29.33;16.70;;;14.80;99.90;;;;;;5018024;28;20036;-60
2023/05/16 04:05:30;;;;;;;26.23;15.65;;;14.80;99.90;;;;;;5017726;28;20056;-59
2023/05/16 04:07:56;;;;;;;25.88;15.85;;;14.80;99.90;;;;;;5017791;28;20046;-59
2023/05/16 04:10:22;;;;;;;22.38;14.68;;;14.80;99.90;;;;;;5017634;28;20025;-60
2023/05/16 04:12:48;;;;;;;25.33;15.25;;;14.80;99.90;;;;;;5000110;28;20042;-60
2023/05/16 04:15:14;;;;;;;26.10;16.42;;;14.80;99.90;;;;;;5017786;28;20030;-60
2023/05/16 04:17:40;;;;;;;34.22;17.42;;;14.90;99.90;;;;;;4999950;28;20538;-60
2023/05/16 04:20:06;;;;;;;29.40;18.42;;;14.90;99.90;;;;;;5017457;28;20065;-59
2023/05/16 04:22:32;;;;;;;30.00;17.92;;;15.00;99.90;;;;;;5017584;28;20109;-59
2023/05/16 04:24:58;;;;;;;25.20;14.60;;;14.90;99.90;;;;;;5017610;28;20464;-60
2023/05/16 04:27:25;;;;;;;25.02;14.77;;;14.90;99.90;;;;;;5017379;28;20029;-60
2023/05/16 04:29:51;;;;;;;23.95;14.43;;;14.90;99.90;;;;;;5017501;28;20038;-59
2023/05/16 04:32:18;;;;;;;31.38;16.98;;;14.90;99.90;;;;;;5017369;28;20029;-59
2023/05/16 04:34:45;;;;;;;30.00;14.95;;;14.90;99.90;;;;;;5017296;28;20030;-60
2023/05/16 04:37:11;;;;;;;22.17;14.55;;;15.00;99.90;;;;;;5017422;28;20373;-60
2023/05/16 04:39:37;;;;;;;27.63;15.52;;;14.90;99.90;;;;;;5017235;28;20442;-59
2023/05/16 04:42:04;;;;;;;34.33;17.55;;;14.90;99.90;;;;;;4999496;28;20030;-60
2023/05/16 04:44:30;;;;;;;37.22;17.92;;;15.00;99.90;;;;;;5017108;28;20018;-60
2023/05/16 04:46:56;;;;;;;29.80;19.05;;;15.10;99.90;;;;;;5017074;28;20383;-59
2023/05/16 04:49:22;;;;;;;24.88;16.10;;;15.10;99.90;;;;;;5016976;28;20090;-60
2023/05/16 04:51:48;;;;;;;30.23;17.33;;;15.10;99.90;;;;;;5017114;28;20056;-60
2023/05/16 04:54:14;;;;;;;28.10;16.27;;;15.10;99.90;;;;;;5017018;28;20458;-60
2023/05/16 04:56:40;;;;;;;29.85;18.30;;;15.10;99.90;;;;;;5017014;28;20041;-59
2023/05/16 04:59:06;;;;;;;34.22;18.65;;;15.20;99.90;;;;;;5016771;28;20026;-60
2023/05/16 05:01:32;;;;;;;29.77;17.65;;;15.20;99.90;;;;;;5016836;28;20522;-60
2023/05/16 05:03:58;;;;;;;32.40;18.60;;;15.20;99.90;;;;;;5016805;28;20109;-60
2023/05/16 05:06:24;;;;;;;33.50;17.77;;;15.20;99.90;;;;;;5016613;28;20041;-60
2023/05/16 05:08:50;;;;;;;33.92;19.23;;;15.30;99.90;;;;;;5016494;28;20058;-60
2023/05/16 05:11:16;;;;;;;45.25;22.58;;;15.30;99.90;;;;;;5016649;28;20025;-60
2023/05/16 05:13:42;;;;;;;40.85;23.05;;;15.30;99.90;;;;;;5016673;28;20395;-60
2023/05/16 05:16:08;;;;;;;53.47;26.88;;;15.20;99.90;;;;;;5016484;28;20039;-60
2023/05/16 05:18:34;;;;;;;40.53;21.95;;;15.30;99.90;;;;;;5016319;28;20034;-60
2023/05/16 05:21:01;;;;;;;37.80;21.02;;;15.40;99.90;;;;;;5016354;28;20383;-60
2023/05/16 05:23:27;;;;;;;44.03;22.30;;;15.40;99.90;;;;;;5035637;28;20105;-60
2023/05/16 05:25:53;;;;;;;37.90;21.38;;;15.40;99.90;;;;;;5032988;28;20458;-60
2023/05/16 05:28:19;;;;;;;37.72;22.33;;;15.40;99.90;;;;;;5034322;28;20776;-60
2023/05/16 05:30:47;;;;;;;43.92;23.83;;;15.40;99.90;;;;;;5017520;28;20025;-59
2023/05/16 05:33:17;;;;;;;42.00;22.38;;;15.40;99.90;;;;;;5036180;28;20027;-60
2023/05/16 05:35:43;;;;;;;37.73;22.90;;;15.30;99.90;;;;;;5032135;28;20021;-60
2023/05/16 05:38:11;;;;;;;38.47;21.45;;;15.30;99.90;;;;;;5036387;28;20277;-59
2023/05/16 05:40:37;;;;;;;37.08;22.90;;;15.30;99.90;;;;;;5036090;28;20032;-60
2023/05/16 05:43:04;;;;;;;38.42;22.55;;;15.30;99.90;;;;;;5036046;28;20108;-59
2023/05/16 05:45:29;;;;;;;41.90;22.80;;;15.30;99.90;;;;;;5022565;28;20068;-59
2023/05/16 05:47:55;;;;;;;43.92;23.70;;;15.30;99.90;;;;;;5019862;28;20029;-60
2023/05/16 05:50:22;;;;;;;40.63;22.48;;;15.30;99.90;;;;;;5019262;28;20117;-60
2023/05/16 05:52:48;;;;;;;36.17;21.48;;;15.30;99.90;;;;;;5015459;28;20034;-59
2023/05/16 05:55:14;;;;;;;38.28;21.73;;;15.20;99.90;;;;;;5014599;28;20391;-60
2023/05/16 05:57:40;;;;;;;36.25;22.52;;;15.20;99.90;;;;;;5005859;28;20039;-60
2023/05/16 06:00:07;;;;;;;37.30;23.63;;;15.20;99.90;;;;;;5000671;28;20040;-60
2023/05/16 06:02:36;;;;;;;39.17;22.77;;;15.40;99.90;;;;;;5010902;28;20042;-60
2023/05/16 06:05:02;;;;;;;50.70;24.85;;;15.40;99.90;;;;;;5016109;28;20026;-59
2023/05/16 06:07:28;;;;;;;46.72;26.20;;;15.40;99.90;;;;;;5016012;28;20475;-59
2023/05/16 06:09:57;;;;;;;63.50;30.70;;;15.30;99.90;;;;;;5009221;28;20034;-59
2023/05/16 06:12:23;;;;;;;65.85;30.83;;;15.20;99.90;;;;;;4998112;28;20041;-59
2023/05/16 06:14:49;;;;;;;66.85;32.30;;;15.10;99.90;;;;;;5015179;28;20042;-59
2023/05/16 06:17:15;;;;;;;57.95;29.50;;;15.00;99.90;;;;;;5027861;28;20026;-59
2023/05/16 06:19:41;;;;;;;59.58;28.42;;;15.10;99.90;;;;;;5027474;28;20121;-59
2023/05/16 06:22:10;;;;;;;48.33;25.70;;;15.00;99.90;;;;;;5031584;28;20079;-60
2023/05/16 06:24:36;;;;;;;56.88;26.02;;;14.90;99.90;;;;;;5029228;28;20033;-59
2023/05/16 06:27:02;;;;;;;55.00;26.75;;;15.00;99.90;;;;;;5013160;28;20044;-59
2023/05/16 06:29:30;;;;;;;49.00;25.67;;;15.10;99.90;;;;;;5033592;28;20053;-60
2023/05/16 06:31:56;;;;;;;49.63;24.38;;;15.10;99.90;;;;;;5028579;28;20037;-59
2023/05/16 06:34:28;;;;;;;56.30;26.92;;;15.10;99.90;;;;;;5034142;28;20372;-59
2023/05/16 06:36:54;;;;;;;52.47;25.65;;;15.10;99.90;;;;;;5024019;28;20025;-59
2023/05/16 06:39:20;;;;;;;51.20;27.90;;;15.00;99.90;;;;;;5030990;28;20545;-59
2023/05/16 06:41:46;;;;;;;53.33;26.67;;;15.20;99.90;;;;;;5033758;28;20026;-60
2023/05/16 06:44:15;;;;;;;52.00;26.13;;;15.20;99.90;;;;;;5031118;28;20022;-60
2023/05/16 06:46:41;;;;;;;52.83;28.50;;;15.20;99.90;;;;;;5033671;28;20029;-59
2023/05/16 06:49:07;;;;;;;62.20;29.90;;;15.30;99.90;;;;;;5033990;28;20017;-59
2023/05/16 06:51:33;;;;;;;47.95;26.98;;;15.20;99.90;;;;;;5034790;28;20092;-59
2023/05/16 06:53:59;;;;;;;49.55;27.95;;;15.20;99.90;;;;;;5034959;28;20056;-59
2023/05/16 06:56:25;;;;;;;48.08;27.73;;;15.40;99.90;;;;;;5030281;28;20030;-60
2023/05/16 06:58:51;;;;;;;41.42;29.08;;;15.50;99.90;;;;;;5014702;28;20041;-60
2023/05/16 07:01:17;;;;;;;46.13;29.52;;;15.60;99.90;;;;;;5012065;28;20405;-60
2023/05/16 07:03:44;;;;;;;43.50;27.95;;;15.70;99.90;;;;;;5013537;28;20025;-60
2023/05/16 07:06:10;;;;;;;44.67;29.27;;;15.90;99.90;;;;;;5013620;28;20495;-60
2023/05/16 07:08:36;;;;;;;44.22;30.83;;;15.90;99.90;;;;;;5013122;28;20133;-61
2023/05/16 07:11:10;;;;;;;44.65;29.05;;;16.10;99.90;;;;;;5013201;28;20026;-60
2023/05/16 07:13:37;;;;;;;48.03;29.98;;;16.20;99.90;;;;;;5020876;28;20040;-60
2023/05/16 07:16:07;;;;;;;42.40;26.88;;;16.30;99.90;;;;;;5028743;28;20021;-60
2023/05/16 07:18:33;;;;;;;37.50;24.85;;;16.40;99.90;;;;;;5025046;28;20037;-60
2023/05/16 07:20:59;;;;;;;41.00;24.50;;;16.70;99.90;;;;;;5008397;28;20038;-60
2023/05/16 07:23:25;;;;;;;43.63;27.65;;;17.00;99.90;;;;;;5008094;28;20022;-60
2023/05/16 07:25:52;;;;;;;39.42;25.08;;;17.40;99.90;;;;;;5014426;28;20026;-60
2023/05/16 07:28:18;;;;;;;35.80;24.52;;;17.70;99.90;;;;;;5028108;28;20041;-60
2023/05/16 07:30:45;;;;;;;29.90;17.58;;;18.20;99.90;;;;;;5028482;28;20064;-60
2023/05/16 07:33:14;;;;;;;26.58;20.25;;;18.40;99.90;;;;;;5031490;28;20096;-60
2023/05/16 07:35:40;;;;;;;29.00;20.92;;;18.80;99.90;;;;;;5033658;28;20024;-60
2023/05/16 07:38:06;;;;;;;23.38;15.95;;;19.40;99.90;;;;;;5009632;28;20033;-60
2023/05/16 07:40:32;;;;;;;25.05;16.83;;;19.40;99.90;;;;;;5032753;28;20064;-60
2023/05/16 07:42:58;;;;;;;27.42;17.70;;;19.70;99.90;;;;;;5029520;28;20026;-60
2023/05/16 07:45:24;;;;;;;25.17;16.88;;;19.80;99.90;;;;;;5025234;28;20028;-60
2023/05/16 07:47:50;;;;;;;26.02;15.30;;;20.00;99.90;;;;;;5024311;28;20113;-60
2023/05/16 07:50:16;;;;;;;23.80;16.92;;;20.00;99.90;;;;;;5034232;28;20509;-60
2023/05/16 07:52:42;;;;;;;27.10;18.73;;;20.10;99.90;;;;;;5034556;28;20053;-60
2023/05/16 07:55:09;;;;;;;27.23;18.13;;;20.30;99.90;;;;;;5017815;28;20049;-60
2023/05/16 07:57:35;;;;;;;23.25;15.10;;;20.20;99.90;;;;;;4994794;28;20030;-60
2023/05/16 08:00:01;;;;;;;25.15;16.13;;;20.30;99.90;;;;;;5000806;28;20111;-60
2023/05/16 08:02:29;;;;;;;23.77;17.75;;;19.70;99.90;;;;;;5003734;28;20030;-60
2023/05/16 08:04:56;;;;;;;29.05;16.33;;;19.70;99.90;;;;;;5012438;28;20030;-60
2023/05/16 08:07:23;;;;;;;21.83;15.10;;;19.80;99.90;;;;;;5016337;28;20046;-60
2023/05/16 08:09:48;;;;;;;22.80;14.63;;;19.90;99.90;;;;;;5012128;28;20026;-60
2023/05/16 08:12:15;;;;;;;19.17;12.98;;;19.70;99.90;;;;;;5009790;28;20041;-60
2023/05/16 08:14:40;;;;;;;19.90;11.98;;;19.60;99.90;;;;;;5017781;28;20034;-60
2023/05/16 08:17:06;;;;;;;20.90;12.90;;;19.20;99.90;;;;;;5015305;28;20096;-60
2023/05/16 08:19:33;;;;;;;16.75;12.48;;;19.30;99.90;;;;;;5018109;28;20069;-60
2023/05/16 08:22:00;;;;;;;22.63;12.15;;;19.70;99.90;;;;;;5018250;28;20030;-60
2023/05/16 08:24:26;;;;;;;20.75;12.43;;;19.70;99.90;;;;;;5018319;28;20456;-60
2023/05/16 08:26:52;;;;;;;18.20;12.35;;;19.90;99.90;;;;;;5016684;28;20026;-60
2023/05/16 08:29:18;;;;;;;22.30;13.20;;;20.20;99.90;;;;;;5017437;28;20030;-60
2023/05/16 08:32:22;;;;;;;16.58;12.60;;;20.00;99.90;;;;;;5015997;28;20030;-60
2023/05/16 08:35:00;;;;;;;19.55;13.43;;;19.40;99.90;;;;;;5012599;28;20045;-60
2023/05/16 08:37:26;;;;;;;18.33;12.18;;;19.50;99.90;;;;;;5017990;28;20467;-60
2023/05/16 08:39:52;;;;;;;23.67;14.30;;;19.70;99.90;;;;;;5017655;28;20061;-60
2023/05/16 08:42:18;;;;;;;21.38;14.23;;;20.00;99.90;;;;;;5033207;28;20438;-60
2023/05/16 08:44:44;;;;;;;21.40;12.48;;;20.20;99.90;;;;;;5028976;28;20101;-61
2023/05/16 08:47:20;;;;;;;24.98;11.52;;;20.20;99.90;;;;;;5016325;28;20026;-60
2023/05/16 08:49:47;;;;;;;17.10;11.02;;;19.90;99.90;;;;;;5008381;28;20026;-61
2023/05/16 08:52:19;;;;;;;16.67;11.18;;;19.90;99.90;;;;;;5013946;28;20029;-61
2023/05/16 08:54:46;;;;;;;16.40;11.10;;;20.00;99.90;;;;;;5016485;28;20034;-61
2023/05/16 08:57:13;;;;;;;15.93;11.05;;;20.30;99.90;;;;;;5016069;28;20038;-61
2023/05/16 08:59:40;;;;;;;20.40;12.90;;;20.70;99.90;;;;;;5024373;28;20117;-61
2023/05/16 09:02:07;;;;;;;19.55;10.13;;;20.60;99.90;;;;;;5016350;28;20034;-61
2023/05/16 09:04:35;;;;;;;22.70;11.90;;;20.60;99.90;;;;;;5016307;28;20025;-60
2023/05/16 09:07:01;;;;;;;22.63;12.13;;;20.30;99.90;;;;;;5016562;28;20041;-61
2023/05/16 09:09:27;;;;;;;21.13;11.65;;;20.70;99.90;;;;;;5016165;28;20030;-60
2023/05/16 09:11:53;;;;;;;21.25;11.90;;;21.40;99.90;;;;;;5016108;28;20030;-61
2023/05/16 09:14:19;;;;;;;25.08;10.27;;;22.10;99.90;;;;;;5016233;28;20080;-61
2023/05/16 09:17:01;;;;;;;18.63;10.00;;;22.50;99.90;;;;;;5015576;28;20026;-61
2023/05/16 09:19:36;;;;;;;19.02;9.63;;;22.30;99.90;;;;;;5004061;28;20029;-61
2023/05/16 09:22:02;;;;;;;19.70;9.05;;;22.40;98.90;;;;;;5015890;28;20044;-61
2023/05/16 09:24:28;;;;;;;23.45;9.55;;;22.90;99.90;;;;;;5015951;28;20034;-61
2023/05/16 09:26:55;;;;;;;26.92;11.02;;;22.60;96.80;;;;;;5013724;28;20086;-60
2023/05/16 09:29:21;;;;;;;19.48;10.57;;;22.30;99.90;;;;;;5015589;28;20526;-61
2023/05/16 09:31:48;;;;;;;14.13;8.77;;;22.70;99.90;;;;;;5015885;28;20116;-61
2023/05/16 09:34:14;;;;;;;21.33;9.75;;;22.80;97.20;;;;;;5015651;28;20472;-61
2023/05/16 09:36:41;;;;;;;19.35;9.80;;;22.30;98.40;;;;;;4995218;28;20041;-60
2023/05/16 09:39:07;;;;;;;18.50;11.50;;;22.20;98.80;;;;;;5013510;28;20483;-61
2023/05/16 09:41:34;;;;;;;21.50;9.77;;;22.10;99.20;;;;;;5016421;28;20034;-61
2023/05/16 09:44:05;;;;;;;17.00;9.18;;;21.80;99.90;;;;;;5016300;28;20029;-60
2023/05/16 09:46:33;;;;;;;20.80;8.43;;;22.10;99.90;;;;;;5016239;28;20054;-61
2023/05/16 09:49:00;;;;;;;20.38;8.20;;;21.80;99.00;;;;;;4996668;28;20427;-61
2023/05/16 09:51:26;;;;;;;16.63;8.85;;;22.10;99.30;;;;;;5013047;28;20040;-61
2023/05/16 09:53:52;;;;;;;17.33;8.85;;;21.90;98.30;;;;;;5016231;28;20435;-61
2023/05/16 09:56:18;;;;;;;15.93;8.43;;;21.90;97.80;;;;;;5016334;28;20076;-61
2023/05/16 09:58:46;;;;;;;19.63;8.45;;;22.20;98.30;;;;;;5009744;28;20029;-61
2023/05/16 10:01:12;;;;;;;23.50;9.85;;;21.90;97.90;;;;;;4998620;28;20384;-61
2023/05/16 10:03:40;;;;;;;17.50;9.40;;;21.80;99.60;;;;;;4996366;28;20161;-61
2023/05/16 10:06:07;;;;;;;25.50;9.88;;;21.80;99.20;;;;;;5007502;28;20088;-60
2023/05/16 10:08:35;;;;;;;18.20;8.50;;;22.10;98.40;;;;;;5004943;28;20057;-60
2023/05/16 10:11:04;;;;;;;19.60;8.80;;;22.20;99.00;;;;;;5012089;28;20041;-61
2023/05/16 10:13:34;;;;;;;17.23;8.30;;;22.30;96.80;;;;;;4998273;28;20041;-60
2023/05/16 10:16:08;;;;;;;16.33;8.15;;;22.10;95.60;;;;;;5014672;28;20030;-61
2023/05/16 10:18:40;;;;;;;22.75;9.00;;;22.40;97.20;;;;;;4997379;28;20030;-60
2023/05/16 10:21:10;;;;;;;21.92;8.93;;;22.70;97.80;;;;;;5015908;28;20108;-61
2023/05/16 10:23:40;;;;;;;15.57;8.95;;;22.90;96.40;;;;;;5015924;28;20057;-60
2023/05/16 10:26:10;;;;;;;25.23;8.45;;;23.20;96.00;;;;;;5013182;28;20031;-60
2023/05/16 10:28:40;;;;;;;23.58;8.63;;;22.90;95.60;;;;;;4996097;28;20084;-61
2023/05/16 10:31:08;;;;;;;17.98;7.65;;;23.10;93.80;;;;;;5013050;28;20033;-62
2023/05/16 10:33:35;;;;;;;23.02;8.80;;;23.00;92.40;;;;;;5009016;28;20432;-62
2023/05/16 10:36:02;;;;;;;18.08;8.07;;;23.00;96.20;;;;;;5015791;28;20482;-63
2023/05/16 10:38:29;;;;;;;26.60;10.30;;;23.20;90.70;;;;;;5015699;28;20030;-62
2023/05/16 10:40:58;;;;;;;22.45;7.93;;;22.80;93.30;;;;;;5015373;28;20442;-62
2023/05/16 10:43:29;;;;;;;18.13;9.23;;;22.50;92.00;;;;;;5015178;28;20037;-62
2023/05/16 10:45:57;;;;;;;22.50;9.65;;;22.20;93.80;;;;;;5014506;28;20361;-62
2023/05/16 10:48:34;;;;;;;22.88;10.48;;;22.10;92.90;;;;;;5014893;28;20026;-62
2023/05/16 10:51:02;;;;;;;20.15;9.18;;;22.30;94.30;;;;;;5015293;28;20076;-62
2023/05/16 10:53:29;;;;;;;27.40;11.13;;;22.50;94.00;;;;;;5014647;28;20026;-62
2023/05/16 10:55:58;;;;;;;23.15;10.90;;;22.40;92.90;;;;;;5014545;28;20083;-62
2023/05/16 10:58:37;;;;;;;19.08;8.38;;;22.30;94.10;;;;;;5014423;28;20018;-62
2023/05/16 11:01:34;;;;;;;33.60;10.23;;;22.10;93.10;;;;;;5030480;28;20076;-62
2023/05/16 11:04:02;;;;;;;22.73;9.23;;;21.90;95.10;;;;;;5004957;28;20029;-62
2023/05/16 11:06:31;;;;;;;19.95;9.82;;;21.80;95.70;;;;;;5014188;28;20040;-61
2023/05/16 11:09:10;;;;;;;24.73;9.95;;;21.80;97.40;;;;;;5014115;28;20523;-62
2023/05/16 11:11:51;;;;;;;21.95;9.27;;;21.80;97.70;;;;;;5013237;28;20357;-62
2023/05/16 11:14:41;;;;;;;30.60;10.82;;;22.10;97.40;;;;;;5014474;28;20419;-61
2023/05/16 11:17:20;;;;;;;18.25;9.43;;;22.30;99.00;;;;;;5014248;28;20025;-62
2023/05/16 11:19:54;;;;;;;25.08;9.88;;;22.60;99.50;;;;;;5013007;28;20030;-62
2023/05/16 11:22:22;;;;;;;23.20;9.35;;;22.70;97.80;;;;;;5007023;28;20096;-62
2023/05/16 11:24:58;;;;;;;23.63;10.65;;;22.90;96.50;;;;;;4994502;28;20030;-62
2023/05/16 11:27:26;;;;;;;31.88;10.88;;;22.80;96.20;;;;;;5011089;28;20026;-62
2023/05/16 11:29:57;;;;;;;21.92;9.45;;;22.80;97.20;;;;;;5014263;28;20045;-62
2023/05/16 11:32:23;;;;;;;;;;;23.20;98.30;;;;;;5013287;28;20112;-62
2023/05/16 11:34:51;;;;;;;19.55;8.65;;;23.40;94.80;;;;;;5014249;28;19941;-62
2023/05/16 11:37:19;;;;;;;23.73;9.32;;;23.40;90.50;;;;;;5014382;28;20030;-61
2023/05/16 11:39:45;;;;;;;18.45;9.63;;;24.00;94.90;;;;;;5014054;28;20072;-62
2023/05/16 11:42:12;;;;;;;20.50;10.45;;;24.10;91.10;;;;;;5015789;28;20387;-63
2023/05/16 11:44:39;;;;;;;19.63;9.80;;;24.40;93.00;;;;;;5017729;28;20060;-61
2023/05/16 11:47:06;;;;;;;19.65;9.57;;;24.30;91.30;;;;;;5006148;28;20522;-61
2023/05/16 11:49:34;;;;;;;19.17;9.30;;;24.50;94.00;;;;;;5017646;28;20022;-62
2023/05/16 11:52:00;;;;;;;22.45;9.48;;;24.80;93.70;;;;;;5017936;28;20137;-62
2023/05/16 11:54:27;;;;;;;21.52;9.82;;;24.80;87.50;;;;;;5009543;28;20045;-61
2023/05/16 11:56:53;;;;;;;22.10;9.05;;;24.40;89.30;;;;;;5015947;28;20022;-60
2023/05/16 11:59:19;;;;;;;18.58;8.82;;;24.50;87.20;;;;;;5012183;28;20033;-61
2023/05/16 12:01:49;;;;;;;19.35;7.65;;;24.10;89.30;;;;;;5012854;28;20543;-61
2023/05/16 12:04:16;;;;;;;19.15;8.77;;;24.20;90.60;;;;;;5017637;28;20025;-61
2023/05/16 12:06:47;;;;;;;21.63;9.27;;;24.20;89.70;;;;;;5017696;28;20410;-61
2023/05/16 12:09:16;;;;;;;18.92;9.00;;;24.30;90.50;;;;;;5017610;28;20022;-62
2023/05/16 12:11:43;;;;;;;18.63;7.82;;;24.50;91.00;;;;;;5017487;28;20117;-63
2023/05/16 12:14:11;;;;;;;19.63;7.95;;;24.80;92.20;;;;;;5017470;28;20418;-63
2023/05/16 12:16:41;;;;;;;22.58;8.73;;;25.00;90.90;;;;;;5016299;28;20080;-62
2023/05/16 12:19:08;;;;;;;22.48;9.25;;;25.20;84.80;;;;;;4999890;28;20084;-62
2023/05/16 12:21:37;;;;;;;20.67;8.98;;;25.30;84.50;;;;;;5016875;28;20137;-63
2023/05/16 12:24:04;;;;;;;22.70;8.13;;;25.20;83.30;;;;;;5037109;28;20030;-63
2023/05/16 12:26:32;;;;;;;22.42;8.70;;;24.90;83.60;;;;;;5028184;28;20427;-63
2023/05/16 12:29:04;;;;;;;18.80;7.43;;;24.70;88.20;;;;;;5009683;28;20029;-63
2023/05/16 12:31:36;;;;;;;19.58;8.93;;;24.70;84.30;;;;;;5009819;28;20026;-63
2023/05/16 12:34:02;;;;;;;22.10;8.77;;;24.80;84.20;;;;;;5017305;28;20025;-63